Cubuk, Turkey
Current Conditions -  °F | °C
As of 2:50 AM on Saturday 25 Oct 2014 (Local Time) from LTAC Reporting Station
Broken Clouds Broken Clouds  
Wind Chill: 48°   Ceiling: 10000
Heat Index: 48°   Visibility: 6mi
Dew Point: 46°   Wind: 3mph
Humidity: 93%   Direction: 230°SW
Pressure: 30"   Gusts: NA
Location:  40.98°N, 32.08°E
Report Text: LTAC 242350Z 23003KT 9999 SCT040 BKN100 09/08 Q1016 NOSIG
Loading
Personal Weather Stations






























Interactive Weather Map
Tropical Storm Tracking
New forecast layout! Learn more

10-Day Weather Forecast

Advertisements
Track Severe Weather on mobile